This is the latest recevied weather packets stored in our database for station/object OK4ZAW-16. If no packets are shown the sender has not sent any weather packets the latest 10 day(s).
| Time | Temp. | Humidity | Pressure | Rain* | Wind** | Luminosity | Snow |
|---|---|---|---|---|---|---|---|
| 1777566616 | 6.67° C | 74% | 1028.8 hPa | - | - | 150 W/m² | - |
| 1777564535 | 7.22° C | 61% | 1029.1 hPa | - | - | 150 W/m² | - |
| 1777563286 | 8.89° C | 52% | 1029 hPa | - | - | 150 W/m² | - |
| 1777562870 | 8.89° C | 49% | 1028.9 hPa | - | - | 150 W/m² | - |
| 1777559537 | 12.22° C | 40% | 1029 hPa | - | - | 150 W/m² | - |
| 1777557871 | 12.22° C | 37% | 1029.1 hPa | - | - | 150 W/m² | - |
| 1777555789 | 9.44° C | 42% | 1029.2 hPa | - | - | 150 W/m² | - |
| 1777554956 | 8.89° C | 44% | 1029.5 hPa | - | - | 150 W/m² | - |
| 1777554540 | 8.89° C | 43% | 1029.5 hPa | - | - | 150 W/m² | - |
| 1777552458 | 7.78° C | 41% | 1029.6 hPa | - | - | 150 W/m² | - |
| 1777552042 | 7.78° C | 41% | 1029.6 hPa | - | - | 150 W/m² | - |
| 1777550377 | 7.78° C | 37% | 1029.9 hPa | - | - | 150 W/m² | - |
| 1777549544 | 7.78° C | 36% | 1029.7 hPa | - | - | 150 W/m² | - |
| 1777547879 | 7.22° C | 39% | 1029.8 hPa | - | - | 150 W/m² | - |
| 1777547463 | 7.22° C | 38% | 1029.9 hPa | - | - | 150 W/m² | - |
| 1777544965 | 7.22° C | 43% | 1030.1 hPa | - | - | 150 W/m² | - |
| 1777544133 | 7.22° C | 43% | 1030.2 hPa | - | - | 150 W/m² | - |
| 1777543716 | 6.67° C | 46% | 1030.2 hPa | - | - | 150 W/m² | - |
| 1777542884 | 7.22° C | 47% | 1030.3 hPa | - | - | 150 W/m² | - |
| 1777542051 | 6.67° C | 49% | 1030.4 hPa | - | - | 150 W/m² | - |
| 1777541635 | 6.11° C | 52% | 1030.3 hPa | - | - | 150 W/m² | - |
| 1777541218 | 6.11° C | 49% | 1030.4 hPa | - | - | 150 W/m² | - |
| 1777540802 | 6.11° C | 49% | 1030.4 hPa | - | - | 150 W/m² | - |
| 1777539970 | 5.56° C | 55% | 1030.4 hPa | - | - | 150 W/m² | - |
| 1777539554 | 4.44° C | 54% | 1030.4 hPa | - | - | 150 W/m² | - |
* Rain since midnight (hover to see other rain measurements)
** Current wind speed in m/s (hover to see current wind gust speed)